createdAt,value
2024-05-09T00:00:41.837Z,10.90
2024-05-09T00:03:10.611Z,10.80
2024-05-09T00:05:42.963Z,10.80
2024-05-09T00:08:11.321Z,10.70
2024-05-09T00:10:40.315Z,10.70
2024-05-09T00:13:08.661Z,10.60
2024-05-09T00:15:36.622Z,10.60
2024-05-09T00:18:05.383Z,10.50
2024-05-09T00:20:38.449Z,10.40
2024-05-09T00:23:12.160Z,10.40
2024-05-09T00:25:40.431Z,10.30
2024-05-09T00:28:07.720Z,10.30
2024-05-09T00:30:36.992Z,10.20
2024-05-09T00:33:06.675Z,10.20
2024-05-09T00:35:35.180Z,10.10
2024-05-09T00:38:02.584Z,10.00
2024-05-09T00:40:39.688Z,10.00
2024-05-09T00:43:10.694Z,9.90
2024-05-09T00:45:38.026Z,9.90
2024-05-09T00:48:07.967Z,9.80
2024-05-09T00:50:40.055Z,9.80
2024-05-09T00:53:10.224Z,9.70
2024-05-09T00:55:39.049Z,9.70
2024-05-09T00:58:07.740Z,9.60
2024-05-09T01:00:39.362Z,9.60
2024-05-09T01:03:10.398Z,9.50
2024-05-09T01:05:39.783Z,9.40
2024-05-09T01:08:08.012Z,9.40
2024-05-09T01:10:36.592Z,9.30
2024-05-09T01:13:04.764Z,9.30
2024-05-09T01:15:31.978Z,9.30
2024-05-09T01:18:01.704Z,9.20
2024-05-09T01:20:39.174Z,9.10
2024-05-09T01:23:10.037Z,9.10
2024-05-09T01:25:37.665Z,9.00
2024-05-09T01:28:05.223Z,8.90
2024-05-09T01:30:35.658Z,8.90
2024-05-09T01:33:09.869Z,8.80
2024-05-09T01:35:41.348Z,8.80
2024-05-09T01:38:09.995Z,8.70
2024-05-09T01:40:39.766Z,8.60
2024-05-09T01:43:09.376Z,8.60
2024-05-09T01:45:38.144Z,8.60
2024-05-09T01:48:05.997Z,8.60
2024-05-09T01:50:38.261Z,8.60
2024-05-09T01:53:09.652Z,8.50
2024-05-09T01:55:37.203Z,8.40
2024-05-09T01:58:04.520Z,8.40
2024-05-09T02:00:38.799Z,8.40
2024-05-09T02:03:10.735Z,8.40
2024-05-09T02:05:39.683Z,8.30
2024-05-09T02:08:07.515Z,8.30
2024-05-09T02:10:34.773Z,8.20
2024-05-09T02:13:02.119Z,8.20
2024-05-09T02:15:29.348Z,8.10
2024-05-09T02:17:59.088Z,8.10
2024-05-09T02:20:33.560Z,8.00
2024-05-09T02:23:05.283Z,7.90
2024-05-09T02:25:33.076Z,7.90
2024-05-09T02:28:00.306Z,7.80
2024-05-09T02:30:37.784Z,7.80
2024-05-09T02:33:09.250Z,7.70
2024-05-09T02:35:37.351Z,7.70
2024-05-09T02:38:04.890Z,7.60
2024-05-09T02:40:37.189Z,7.50
2024-05-09T02:43:07.884Z,7.40
2024-05-09T02:45:35.547Z,7.40
2024-05-09T02:48:02.988Z,7.40
2024-05-09T02:50:37.212Z,7.30
2024-05-09T02:53:10.147Z,7.30
2024-05-09T02:55:41.515Z,7.30
2024-05-09T02:58:09.223Z,7.30
2024-05-09T03:00:40.224Z,7.30
2024-05-09T03:03:12.114Z,7.30
2024-05-09T03:05:41.618Z,7.30
2024-05-09T03:08:09.377Z,7.20
2024-05-09T03:10:38.610Z,7.20
2024-05-09T03:13:15.360Z,7.10
2024-05-09T03:15:44.487Z,7.10
2024-05-09T03:18:12.543Z,7.00
2024-05-09T03:20:40.255Z,7.00
2024-05-09T03:23:09.564Z,7.00
2024-05-09T03:25:38.407Z,7.00
2024-05-09T03:28:05.988Z,6.90
2024-05-09T03:30:40.156Z,6.90
2024-05-09T03:33:18.630Z,6.90
2024-05-09T03:35:48.151Z,6.80
2024-05-09T03:38:15.841Z,6.90
2024-05-09T03:40:48.351Z,6.90
2024-05-09T03:43:16.684Z,7.00
2024-05-09T03:45:44.029Z,7.00
2024-05-09T03:48:11.254Z,7.00
2024-05-09T03:50:38.766Z,7.10
2024-05-09T03:53:06.372Z,7.10
2024-05-09T03:55:33.610Z,7.20
2024-05-09T03:58:00.796Z,7.20
2024-05-09T04:00:35.625Z,7.30
2024-05-09T04:03:09.069Z,7.40
2024-05-09T04:05:40.421Z,7.50
2024-05-09T04:08:08.935Z,7.60
2024-05-09T04:10:36.171Z,7.70
2024-05-09T04:13:04.074Z,7.70
2024-05-09T04:15:31.747Z,7.80
2024-05-09T04:17:59.318Z,8.00
2024-05-09T04:22:56.644Z,8.10
2024-05-09T04:25:23.828Z,8.20
2024-05-09T04:27:55.716Z,8.30
2024-05-09T04:30:34.244Z,8.40
2024-05-09T04:33:07.071Z,8.40
2024-05-09T04:35:36.745Z,8.50
2024-05-09T04:38:04.470Z,8.50
2024-05-09T04:40:35.143Z,8.50
2024-05-09T04:43:05.225Z,8.50
2024-05-09T04:45:32.614Z,8.60
2024-05-09T04:48:00.235Z,8.70
2024-05-09T04:50:36.083Z,8.70
2024-05-09T04:53:06.868Z,8.80
2024-05-09T04:55:34.668Z,8.90
2024-05-09T04:58:01.963Z,9.00
2024-05-09T05:00:35.830Z,9.10
2024-05-09T05:03:13.170Z,9.20
2024-05-09T05:05:43.715Z,9.30
2024-05-09T05:08:17.735Z,9.30
2024-05-09T05:10:46.427Z,9.40
2024-05-09T05:13:20.743Z,9.50
2024-05-09T05:15:56.546Z,9.50
2024-05-09T05:18:25.106Z,9.60
2024-05-09T05:20:52.550Z,9.70
2024-05-09T05:23:21.242Z,9.80
2024-05-09T05:25:51.218Z,9.90
2024-05-09T05:28:18.957Z,9.90
2024-05-09T05:30:46.931Z,10.00
2024-05-09T05:33:15.568Z,10.00
2024-05-09T05:35:43.131Z,10.10
2024-05-09T05:38:10.996Z,10.20
2024-05-09T05:40:39.504Z,10.20
2024-05-09T05:43:26.426Z,10.30
2024-05-09T05:45:53.374Z,10.40
2024-05-09T05:48:20.543Z,10.50
2024-05-09T05:50:47.934Z,10.50
2024-05-09T05:53:14.995Z,10.60
2024-05-09T05:55:42.554Z,10.70
2024-05-09T05:58:11.973Z,10.70
2024-05-09T06:00:41.076Z,10.80
2024-05-09T06:03:10.211Z,10.90
2024-05-09T06:05:40.453Z,10.90
2024-05-09T06:08:08.987Z,11.00
2024-05-09T06:10:39.583Z,11.10
2024-05-09T06:13:11.420Z,11.20
2024-05-09T06:15:39.616Z,11.20
2024-05-09T06:18:08.760Z,11.30
2024-05-09T06:20:38.057Z,11.40
2024-05-09T06:23:07.063Z,11.40
2024-05-09T06:25:35.569Z,11.50
2024-05-09T06:28:03.488Z,11.60
2024-05-09T06:30:38.559Z,11.60
2024-05-09T06:33:10.439Z,11.70
2024-05-09T06:35:39.270Z,11.70
2024-05-09T06:38:09.561Z,11.80
2024-05-09T06:40:41.307Z,11.90
2024-05-09T06:43:18.472Z,12.00
2024-05-09T06:45:48.470Z,12.10
2024-05-09T06:48:18.391Z,12.10
2024-05-09T06:50:46.197Z,12.20
2024-05-09T06:53:15.033Z,12.20
2024-05-09T06:55:42.393Z,12.20
2024-05-09T06:58:09.865Z,12.30
2024-05-09T07:00:39.694Z,12.40
2024-05-09T07:03:13.678Z,12.40
2024-05-09T07:05:43.417Z,12.50
2024-05-09T07:08:10.789Z,12.60
2024-05-09T07:10:38.498Z,12.60
2024-05-09T07:13:12.550Z,12.70
2024-05-09T07:15:41.061Z,12.80
2024-05-09T07:18:17.574Z,12.90
2024-05-09T07:20:47.308Z,12.90
2024-05-09T07:23:16.097Z,13.00
2024-05-09T07:25:43.764Z,13.00
2024-05-09T07:28:18.826Z,13.10
2024-05-09T07:30:46.324Z,13.20
2024-05-09T07:33:22.755Z,13.30
2024-05-09T07:35:51.518Z,13.30
2024-05-09T07:38:18.988Z,13.40
2024-05-09T07:40:46.224Z,13.40
2024-05-09T07:43:14.465Z,13.40
2024-05-09T07:45:51.148Z,13.50
2024-05-09T07:52:37.529Z,13.60
2024-05-09T07:53:49.218Z,13.60
2024-05-09T07:56:22.398Z,13.60
2024-05-09T07:58:52.638Z,13.70
2024-05-09T08:01:20.542Z,13.70
2024-05-09T08:03:48.192Z,13.80
2024-05-09T08:06:15.486Z,13.80
2024-05-09T08:08:42.829Z,13.90
2024-05-09T08:11:10.037Z,14.00
2024-05-09T08:13:37.291Z,14.00
2024-05-09T08:16:04.654Z,14.10
2024-05-09T08:18:31.994Z,14.10
2024-05-09T08:20:59.526Z,14.20
2024-05-09T08:23:26.688Z,14.30
2024-05-09T08:25:53.814Z,14.30
2024-05-09T08:28:21.115Z,14.30
2024-05-09T08:30:48.660Z,14.40
2024-05-09T08:33:16.126Z,14.40
2024-05-09T08:35:43.400Z,14.40
2024-05-09T08:38:10.700Z,14.40
2024-05-09T08:40:38.398Z,14.40
2024-05-09T08:43:11.672Z,14.40
2024-05-09T08:45:44.172Z,14.40
2024-05-09T08:48:14.737Z,14.40
2024-05-09T08:50:43.652Z,14.50
2024-05-09T08:53:10.999Z,14.60
2024-05-09T08:55:41.683Z,14.60
2024-05-09T08:58:17.038Z,14.60
2024-05-09T09:00:46.007Z,14.60
2024-05-09T09:03:18.035Z,14.70
2024-05-09T09:06:02.175Z,14.70
2024-05-09T09:08:29.288Z,14.80
2024-05-09T09:10:58.906Z,14.90
2024-05-09T09:13:28.974Z,15.00
2024-05-09T09:15:59.562Z,15.00
2024-05-09T09:18:28.110Z,15.00
2024-05-09T09:20:56.075Z,15.00
2024-05-09T09:23:23.324Z,15.00
2024-05-09T09:25:50.798Z,15.00
2024-05-09T09:28:18.130Z,15.10
2024-05-09T09:30:46.334Z,15.10
2024-05-09T09:33:13.953Z,15.20
2024-05-09T09:35:41.224Z,15.30
2024-05-09T09:38:10.534Z,15.30
2024-05-09T09:40:45.769Z,15.30
2024-05-09T09:43:21.565Z,15.30
2024-05-09T09:45:53.600Z,15.30
2024-05-09T09:48:23.066Z,15.40
2024-05-09T09:50:55.481Z,15.30
2024-05-09T09:53:23.737Z,15.40
2024-05-09T09:55:52.282Z,15.40
2024-05-09T09:58:19.708Z,15.50
2024-05-09T10:00:47.268Z,15.60
2024-05-09T10:03:14.508Z,15.60
2024-05-09T10:05:45.318Z,15.70
2024-05-09T10:08:16.068Z,15.80
2024-05-09T10:10:47.726Z,15.90
2024-05-09T10:13:15.583Z,15.90
2024-05-09T10:15:54.518Z,16.00
2024-05-09T10:18:28.432Z,16.00
2024-05-09T10:20:57.871Z,16.10
2024-05-09T10:23:25.847Z,16.10
2024-05-09T10:26:05.299Z,16.10
2024-05-09T10:28:35.325Z,16.20
2024-05-09T10:31:14.899Z,16.30
2024-05-09T10:33:51.693Z,16.30
2024-05-09T10:36:23.918Z,16.30
2024-05-09T10:38:52.740Z,16.30
2024-05-09T10:41:21.337Z,16.30
2024-05-09T10:43:48.938Z,16.30
2024-05-09T10:46:16.849Z,16.40
2024-05-09T10:48:44.851Z,16.40
2024-05-09T10:51:13.659Z,16.40
2024-05-09T10:53:44.789Z,16.50
2024-05-09T10:56:14.193Z,16.50
2024-05-09T10:58:41.432Z,16.50
2024-05-09T11:01:10.145Z,16.50
2024-05-09T11:03:39.026Z,16.50
2024-05-09T11:06:06.900Z,16.50
2024-05-09T11:08:35.176Z,16.40
2024-05-09T11:11:07.673Z,16.50
2024-05-09T11:13:37.903Z,16.50
2024-05-09T11:16:15.793Z,16.60
2024-05-09T11:18:43.697Z,16.70
2024-05-09T11:21:14.154Z,16.80
2024-05-09T11:23:41.850Z,16.90
2024-05-09T11:26:11.022Z,17.00
2024-05-09T11:28:38.157Z,17.20
2024-05-09T11:31:07.901Z,17.30
2024-05-09T11:33:40.222Z,17.50
2024-05-09T11:36:08.229Z,17.60
2024-05-09T11:38:35.309Z,17.80
2024-05-09T11:41:03.138Z,18.00
2024-05-09T11:43:30.307Z,18.20
2024-05-09T11:45:57.917Z,18.40
2024-05-09T11:48:26.163Z,18.50
2024-05-09T11:50:55.062Z,18.70
2024-05-09T11:53:22.224Z,18.90
2024-05-09T11:55:49.442Z,19.10
2024-05-09T11:58:18.224Z,19.30
2024-05-09T12:00:46.966Z,19.50
2024-05-09T12:03:14.465Z,19.60
2024-05-09T12:05:41.836Z,19.50
2024-05-09T12:08:09.105Z,19.60
2024-05-09T12:10:37.094Z,19.50
2024-05-09T12:13:06.578Z,19.50
2024-05-09T12:15:37.921Z,19.60
2024-05-09T12:18:06.970Z,19.60
2024-05-09T12:20:37.896Z,19.80
2024-05-09T12:23:08.417Z,20.00
2024-05-09T12:25:37.439Z,20.30
2024-05-09T12:28:04.879Z,20.50
2024-05-09T12:30:37.535Z,20.80
2024-05-09T12:33:13.924Z,21.00
2024-05-09T12:35:44.242Z,21.40
2024-05-09T12:38:14.576Z,21.70
2024-05-09T12:40:42.814Z,21.90
2024-05-09T12:43:11.065Z,22.10
2024-05-09T12:45:39.809Z,22.30
2024-05-09T12:48:12.166Z,22.30
2024-05-09T12:50:40.733Z,22.10
2024-05-09T12:53:07.979Z,22.10
2024-05-09T12:55:43.890Z,22.20
2024-05-09T12:58:19.159Z,22.40
2024-05-09T13:00:46.946Z,22.60
2024-05-09T13:03:14.799Z,22.80
2024-05-09T13:05:45.000Z,23.00
2024-05-09T13:08:12.830Z,23.20
2024-05-09T13:10:40.051Z,23.40
2024-05-09T13:13:07.216Z,23.60
2024-05-09T13:15:37.488Z,23.80
2024-05-09T13:18:05.429Z,24.00
2024-05-09T13:20:35.183Z,24.10
2024-05-09T13:23:05.655Z,24.10
2024-05-09T13:25:35.012Z,24.00
2024-05-09T13:28:03.359Z,23.70
2024-05-09T13:30:38.856Z,23.60
2024-05-09T13:33:13.582Z,23.60
2024-05-09T13:35:48.689Z,23.60
2024-05-09T13:38:19.431Z,23.70
2024-05-09T13:40:47.016Z,23.90
2024-05-09T13:43:14.331Z,24.10
2024-05-09T13:45:41.570Z,24.10
2024-05-09T13:48:10.128Z,24.10
2024-05-09T13:50:37.627Z,23.90
2024-05-09T13:53:07.363Z,23.70
2024-05-09T13:55:37.694Z,23.60
2024-05-09T13:58:05.148Z,23.40
2024-05-09T14:00:42.876Z,23.30
2024-05-09T14:03:16.019Z,23.20
2024-05-09T14:05:43.890Z,23.10
2024-05-09T14:08:11.624Z,22.90
2024-05-09T14:10:44.648Z,22.70
2024-05-09T14:13:13.109Z,22.60
2024-05-09T14:15:40.693Z,22.70
2024-05-09T14:18:11.176Z,22.80
2024-05-09T14:20:40.143Z,23.10
2024-05-09T14:23:07.165Z,23.20
2024-05-09T14:25:38.917Z,23.20
2024-05-09T14:28:09.330Z,23.10
2024-05-09T14:30:38.307Z,23.10
2024-05-09T14:33:07.988Z,23.00
2024-05-09T14:35:37.460Z,23.00
2024-05-09T14:38:06.040Z,23.00
2024-05-09T14:43:03.671Z,23.00
2024-05-09T14:45:31.938Z,23.10
2024-05-09T14:47:59.590Z,23.10
2024-05-09T14:50:34.707Z,23.10
2024-05-09T14:53:06.958Z,22.90
2024-05-09T14:55:39.289Z,22.70
2024-05-09T14:58:08.225Z,22.70
2024-05-09T15:00:41.653Z,22.70
2024-05-09T15:03:12.064Z,22.80
2024-05-09T15:05:40.341Z,22.70
2024-05-09T15:08:08.153Z,22.60
2024-05-09T15:10:36.910Z,22.40
2024-05-09T15:13:07.255Z,22.30
2024-05-09T15:15:36.886Z,22.10
2024-05-09T15:18:07.301Z,22.10
2024-05-09T15:20:36.979Z,22.00
2024-05-09T15:23:06.995Z,22.00
2024-05-09T15:25:36.257Z,22.10
2024-05-09T15:28:05.019Z,22.20
2024-05-09T15:30:33.942Z,22.40
2024-05-09T15:33:06.329Z,22.50
2024-05-09T15:35:34.685Z,22.70
2024-05-09T15:38:04.013Z,22.80
2024-05-09T15:40:38.572Z,22.80
2024-05-09T15:43:09.591Z,22.80
2024-05-09T15:45:38.624Z,22.80
2024-05-09T15:48:06.699Z,22.90
2024-05-09T15:50:38.891Z,22.90
2024-05-09T15:53:10.103Z,22.90
2024-05-09T15:55:37.960Z,22.90
2024-05-09T15:58:06.399Z,22.80
2024-05-09T16:00:38.792Z,22.80
2024-05-09T16:03:10.638Z,22.70
2024-05-09T16:05:38.499Z,22.60
2024-05-09T16:08:06.975Z,22.50
2024-05-09T16:10:35.143Z,22.40
2024-05-09T16:13:03.562Z,22.30
2024-05-09T16:15:31.342Z,22.20
2024-05-09T16:17:58.601Z,22.10
2024-05-09T16:20:34.856Z,22.00
2024-05-09T16:23:08.309Z,21.90
2024-05-09T16:25:35.767Z,21.70
2024-05-09T16:28:07.469Z,21.60
2024-05-09T16:30:40.434Z,21.50
2024-05-09T16:33:08.509Z,21.40
2024-05-09T16:35:36.510Z,21.30
2024-05-09T16:38:04.216Z,21.10
2024-05-09T16:40:38.071Z,20.90
2024-05-09T16:43:09.208Z,20.70
2024-05-09T16:45:37.446Z,20.60
2024-05-09T16:48:05.080Z,20.50
2024-05-09T16:50:34.668Z,20.40
2024-05-09T16:53:04.359Z,20.30
2024-05-09T16:55:32.023Z,20.30
2024-05-09T16:57:59.289Z,20.30
2024-05-09T17:00:36.340Z,20.20
2024-05-09T17:03:10.582Z,20.00
2024-05-09T17:05:38.876Z,20.00
2024-05-09T17:08:06.799Z,19.90
2024-05-09T17:10:35.268Z,19.70
2024-05-09T17:13:04.685Z,19.60
2024-05-09T17:15:33.425Z,19.40
2024-05-09T17:18:01.421Z,19.30
2024-05-09T17:20:33.466Z,19.20
2024-05-09T17:23:04.100Z,19.10
2024-05-09T17:25:31.637Z,19.00
2024-05-09T17:28:05.437Z,18.90
2024-05-09T17:30:36.771Z,18.80
2024-05-09T17:33:07.616Z,18.70
2024-05-09T17:35:36.281Z,18.60
2024-05-09T17:38:05.047Z,18.50
2024-05-09T17:40:35.874Z,18.50
2024-05-09T17:43:06.359Z,18.40
2024-05-09T17:45:34.900Z,18.30
2024-05-09T17:48:02.577Z,18.20
2024-05-09T17:50:35.677Z,18.10
2024-05-09T17:53:05.698Z,18.10
2024-05-09T17:55:33.629Z,18.00
2024-05-09T17:58:01.122Z,17.90
2024-05-09T18:00:36.750Z,17.80
2024-05-09T18:03:08.168Z,17.80
2024-05-09T18:05:36.667Z,17.70
2024-05-09T18:08:05.468Z,17.70
2024-05-09T18:10:37.079Z,17.60
2024-05-09T18:13:07.477Z,17.60
2024-05-09T18:15:35.047Z,17.50
2024-05-09T18:18:03.366Z,17.50
2024-05-09T18:20:40.405Z,17.40
2024-05-09T18:23:12.563Z,17.30
2024-05-09T18:25:39.832Z,17.20
2024-05-09T18:28:07.359Z,17.10
2024-05-09T18:30:36.517Z,17.10
2024-05-09T18:33:07.051Z,17.00
2024-05-09T18:35:36.638Z,16.90
2024-05-09T18:38:04.946Z,16.90
2024-05-09T18:40:35.874Z,16.80
2024-05-09T18:43:07.593Z,16.80
2024-05-09T18:45:39.871Z,16.70
2024-05-09T18:48:09.106Z,16.70
2024-05-09T18:50:39.703Z,16.70
2024-05-09T18:53:10.331Z,16.70
2024-05-09T18:55:38.557Z,16.70
2024-05-09T18:58:05.967Z,16.70
2024-05-09T19:00:36.582Z,16.70
2024-05-09T19:03:11.822Z,16.60
2024-05-09T19:05:45.262Z,16.60
2024-05-09T19:08:14.624Z,16.50
2024-05-09T19:10:42.088Z,16.50
2024-05-09T19:13:12.517Z,16.40
2024-05-09T19:15:42.455Z,16.30
2024-05-09T19:18:15.250Z,16.20
2024-05-09T19:20:43.310Z,16.10
2024-05-09T19:23:11.852Z,16.00
2024-05-09T19:25:39.292Z,15.90
2024-05-09T19:28:06.643Z,15.90
2024-05-09T19:30:39.682Z,15.80
2024-05-09T19:33:12.353Z,15.70
2024-05-09T19:35:40.838Z,15.60
2024-05-09T19:38:08.002Z,15.60
2024-05-09T19:40:35.818Z,15.50
2024-05-09T19:43:05.026Z,15.40
2024-05-09T19:45:34.103Z,15.30
2024-05-09T19:48:02.424Z,15.20
2024-05-09T19:50:37.336Z,15.10
2024-05-09T19:53:10.251Z,15.00
2024-05-09T19:55:38.205Z,14.90
2024-05-09T19:58:07.248Z,14.80
2024-05-09T20:00:38.269Z,14.70
2024-05-09T20:03:07.834Z,14.60
2024-05-09T20:05:35.619Z,14.50
2024-05-09T20:08:03.259Z,14.40
2024-05-09T20:10:33.239Z,14.30
2024-05-09T20:13:03.093Z,14.30
2024-05-09T20:15:31.463Z,14.20
2024-05-09T20:17:58.751Z,14.20
2024-05-09T20:20:33.820Z,14.10
2024-05-09T20:23:06.494Z,14.00
2024-05-09T20:25:33.589Z,14.00
2024-05-09T20:28:00.882Z,13.90
2024-05-09T20:30:32.283Z,14.00
2024-05-09T20:33:02.982Z,13.90
2024-05-09T20:35:34.201Z,13.90
2024-05-09T20:38:03.007Z,13.80
2024-05-09T20:40:34.972Z,13.80
2024-05-09T20:43:06.137Z,13.70
2024-05-09T20:45:33.973Z,13.60
2024-05-09T20:48:01.639Z,13.70
2024-05-09T20:50:36.983Z,13.60
2024-05-09T20:53:14.891Z,13.50
2024-05-09T20:55:45.763Z,13.50
2024-05-09T20:58:13.623Z,13.40
2024-05-09T21:00:44.405Z,13.40
2024-05-09T21:03:15.830Z,13.30
2024-05-09T21:05:44.061Z,13.30
2024-05-09T21:08:11.437Z,13.30
2024-05-09T21:10:38.854Z,13.20
2024-05-09T21:13:07.016Z,13.20
2024-05-09T21:15:35.850Z,13.10
2024-05-09T21:18:03.688Z,12.90
2024-05-09T21:20:33.431Z,12.80
2024-05-09T21:23:01.884Z,12.70
2024-05-09T21:25:29.624Z,12.60
2024-05-09T21:27:56.774Z,12.60
2024-05-09T21:30:32.652Z,12.50
2024-05-09T21:33:13.242Z,12.50
2024-05-09T21:35:42.954Z,12.40
2024-05-09T21:38:10.363Z,12.30
2024-05-09T21:40:38.542Z,12.30
2024-05-09T21:43:07.829Z,12.30
2024-05-09T21:45:36.369Z,12.30
2024-05-09T21:48:04.551Z,12.20
2024-05-09T21:50:39.137Z,12.30
2024-05-09T21:53:09.020Z,12.20
2024-05-09T21:55:36.175Z,12.20
2024-05-09T21:58:03.715Z,12.20
2024-05-09T22:00:36.752Z,12.20
2024-05-09T22:03:07.994Z,12.10
2024-05-09T22:05:37.565Z,12.10
2024-05-09T22:08:05.027Z,12.10
2024-05-09T22:10:34.983Z,12.10
2024-05-09T22:13:07.401Z,12.00
2024-05-09T22:15:37.330Z,11.90
2024-05-09T22:18:06.612Z,11.80
2024-05-09T22:20:37.765Z,11.70
2024-05-09T22:23:07.245Z,11.60
2024-05-09T22:25:34.558Z,11.40
2024-05-09T22:28:02.833Z,11.40
2024-05-09T22:30:36.420Z,11.30
2024-05-09T22:33:11.172Z,11.40
2024-05-09T22:35:39.947Z,11.40
2024-05-09T22:38:07.474Z,11.30
2024-05-09T22:40:45.200Z,11.30
2024-05-09T22:43:23.913Z,11.20
2024-05-09T22:45:54.882Z,11.20
2024-05-09T22:48:23.686Z,11.10
2024-05-09T22:50:51.974Z,11.00
2024-05-09T22:53:19.124Z,11.00
2024-05-09T22:55:46.243Z,11.00
2024-05-09T22:58:13.299Z,11.00
2024-05-09T23:00:40.651Z,10.90
2024-05-09T23:03:07.714Z,11.00
2024-05-09T23:05:34.819Z,10.90
2024-05-09T23:08:02.816Z,10.90
2024-05-09T23:10:35.744Z,10.80
2024-05-09T23:13:07.605Z,10.80
2024-05-09T23:15:35.851Z,10.70
2024-05-09T23:18:03.323Z,10.60
2024-05-09T23:20:36.987Z,10.60
2024-05-09T23:23:07.318Z,10.50
2024-05-09T23:25:34.988Z,10.50
2024-05-09T23:28:02.768Z,10.60
2024-05-09T23:30:37.344Z,10.60
2024-05-09T23:33:08.124Z,10.60
2024-05-09T23:35:35.771Z,10.60
2024-05-09T23:38:03.260Z,10.60
2024-05-09T23:40:38.421Z,10.50
2024-05-09T23:43:09.132Z,10.50
2024-05-09T23:45:36.932Z,10.40
2024-05-09T23:48:04.735Z,10.40
2024-05-09T23:50:36.126Z,10.40
2024-05-09T23:53:07.245Z,10.40
2024-05-09T23:55:35.435Z,10.30
2024-05-09T23:58:02.712Z,10.30
